Terminal Aerodrome Forecast
Issued by NWS

Home | Current Version | Previous Version | Text Only | Print | Product List | Glossary On
Versions: 1 2 3 4 5 6 7 8 9 10 11 12 13 14 15 16 17 18 19
000
FTUS45 KTFX 262000 AAA
TAFCTB
TAF AMD
KCTB 262006Z 2620/2718 13006KT 2SM -SN OVC004
      TEMPO 2620/2623 4SM -SN BR SCT005 OVC015
     FM262300 15007KT P6SM SCT008 OVC018
     FM270200 19010KT P6SM VCSH SCT050 BKN080
     FM271000 24018KT P6SM SCT060 BKN100=

USA.gov is the U.S. government's official web portal to all federal, state and local government web resources and services.